Time;durP1;ratioP1;P1;durP2;ratioP2;P2;SDS_P1;SDS_P2;PMS_P1;PMS_P2;Temp;Humidity;BMP_temperature;BMP_pressure;BME280_temperature;BME280_humidity;BME280_pressure;Samples;Min_cycle;Max_cycle;Signal;HPM_P1;HPM_P2
2023/08/01 04:00:14;;;;;;;1.43;1.43;;;16.30;99.90;;;;;;5922594;23;20508;31
2023/08/01 04:02:42;;;;;;;1.50;1.50;;;16.30;99.90;;;;;;4846491;29;21045;-69
2023/08/01 04:05:09;;;;;;;1.60;1.50;;;16.40;99.90;;;;;;4853729;29;21048;-69
2023/08/01 04:07:36;;;;;;;3.03;1.87;;;16.30;99.90;;;;;;4858001;29;20945;-69
2023/08/01 04:10:03;;;;;;;1.80;1.70;;;16.30;99.90;;;;;;4857347;29;20497;-69
2023/08/01 04:12:29;;;;;;;1.50;1.50;;;16.30;99.90;;;;;;4860649;29;20508;-70
2023/08/01 04:14:56;;;;;;;1.37;1.37;;;16.30;99.90;;;;;;4857092;29;20470;-68
2023/08/01 04:17:24;;;;;;;1.43;1.37;;;16.30;99.90;;;;;;4857186;29;20978;-68
2023/08/01 04:19:51;;;;;;;1.53;1.53;;;16.30;99.90;;;;;;4851715;29;20456;-68
2023/08/01 04:22:18;;;;;;;3.20;1.73;;;16.40;99.90;;;;;;4856951;29;20500;-69
2023/08/01 04:24:44;;;;;;;1.70;1.60;;;16.40;99.90;;;;;;4856683;29;20976;-68
2023/08/01 04:27:11;;;;;;;2.70;2.50;;;16.30;99.90;;;;;;4863308;29;20480;-68
2023/08/01 04:29:38;;;;;;;2.00;1.90;;;16.30;99.90;;;;;;4865918;29;20465;-69
2023/08/01 04:32:05;;;;;;;1.37;1.37;;;16.30;99.90;;;;;;4856433;29;20503;-69
2023/08/01 04:34:33;;;;;;;1.77;1.47;;;16.40;99.90;;;;;;4856679;29;20940;-69
2023/08/01 04:37:00;;;;;;;2.30;1.50;;;16.30;99.90;;;;;;4854430;29;20572;-69
2023/08/01 04:39:27;;;;;;;3.30;1.47;;;16.30;99.90;;;;;;4855093;29;20465;-70
2023/08/01 04:41:53;;;;;;;1.67;1.57;;;16.30;99.90;;;;;;4866760;29;20495;-70
2023/08/01 04:44:20;;;;;;;1.30;1.30;;;16.30;99.90;;;;;;4871497;29;20512;-70
2023/08/01 04:46:48;;;;;;;1.20;1.20;;;16.30;99.90;;;;;;4857634;29;20474;-70
2023/08/01 04:49:15;;;;;;;1.40;1.30;;;16.30;99.90;;;;;;4857834;29;20476;-70
2023/08/01 04:51:43;;;;;;;1.47;1.10;;;16.30;99.90;;;;;;4857761;29;20504;-69
2023/08/01 04:54:09;;;;;;;1.27;1.27;;;16.40;99.90;;;;;;4857612;29;20484;-68
2023/08/01 04:56:36;;;;;;;1.13;1.13;;;16.40;99.90;;;;;;4857842;29;20492;-70
2023/08/01 04:59:03;;;;;;;1.30;1.30;;;16.40;99.90;;;;;;4858604;29;20575;-70
2023/08/01 05:01:29;;;;;;;3.27;1.63;;;16.40;99.90;;;;;;4857470;29;20496;-70
2023/08/01 05:03:57;;;;;;;1.80;1.80;;;16.50;99.90;;;;;;4857303;29;20508;-69
2023/08/01 05:06:23;;;;;;;1.40;1.40;;;16.50;99.90;;;;;;4849406;29;20498;-70
2023/08/01 05:08:51;;;;;;;1.90;1.90;;;16.40;99.90;;;;;;4856916;29;20475;-69
2023/08/01 05:11:18;;;;;;;1.30;1.30;;;16.50;99.90;;;;;;4857786;29;20493;-70
2023/08/01 05:13:45;;;;;;;1.40;1.40;;;16.50;99.90;;;;;;4867850;29;20469;-70
2023/08/01 05:16:11;;;;;;;1.83;1.73;;;16.50;99.90;;;;;;4857201;29;20495;-70
2023/08/01 05:18:38;;;;;;;1.53;1.53;;;16.50;99.90;;;;;;4857907;29;20476;-69
2023/08/01 05:21:05;;;;;;;1.87;1.77;;;16.60;99.90;;;;;;4857242;29;20488;-69
2023/08/01 05:23:32;;;;;;;1.53;1.43;;;16.60;99.90;;;;;;4857846;29;20496;-70
2023/08/01 05:26:00;;;;;;;2.40;2.30;;;16.60;99.90;;;;;;4856351;29;20976;-69
2023/08/01 05:28:26;;;;;;;1.77;1.77;;;16.70;99.90;;;;;;4859567;29;20460;-70
2023/08/01 05:30:53;;;;;;;2.10;2.00;;;16.80;99.90;;;;;;4856980;29;20485;-70
2023/08/01 05:33:20;;;;;;;1.60;1.60;;;16.80;99.90;;;;;;4857444;29;20480;-71
2023/08/01 05:35:46;;;;;;;1.80;1.70;;;16.90;99.90;;;;;;4856931;29;20495;-71
2023/08/01 05:38:13;;;;;;;2.30;2.17;;;17.00;99.90;;;;;;4856815;29;20465;-69
2023/08/01 05:40:40;;;;;;;1.27;1.27;;;17.00;99.90;;;;;;4869277;29;20603;-70
2023/08/01 05:43:08;;;;;;;1.77;1.70;;;17.00;99.90;;;;;;4857458;29;20465;-70
2023/08/01 05:45:35;;;;;;;4.00;2.03;;;17.00;99.90;;;;;;4858944;29;20524;-70
2023/08/01 05:48:02;;;;;;;1.70;1.70;;;17.10;99.90;;;;;;4860637;29;20480;-71
2023/08/01 05:50:29;;;;;;;1.67;1.63;;;17.10;99.90;;;;;;4860216;29;20481;-71
2023/08/01 05:52:56;;;;;;;2.20;2.10;;;17.10;99.90;;;;;;4859895;29;20472;-71
2023/08/01 05:55:21;;;;;;;3.00;2.87;;;17.10;99.90;;;;;;4858496;29;20496;-71
2023/08/01 05:57:52;;;;;;;1.43;1.33;;;17.10;99.90;;;;;;4859707;29;20468;-70
2023/08/01 06:00:21;;;;;;;2.13;2.03;;;17.10;99.90;;;;;;4853452;29;20209;-70
2023/08/01 06:02:49;;;;;;;2.33;2.13;;;17.20;99.90;;;;;;4868272;29;20560;-71
2023/08/01 06:05:16;;;;;;;3.13;2.93;;;17.20;99.90;;;;;;4867245;29;20496;-70
2023/08/01 06:07:42;;;;;;;2.17;2.07;;;17.20;99.90;;;;;;4858861;29;20473;-71
2023/08/01 06:10:10;;;;;;;1.57;1.57;;;17.10;99.90;;;;;;4857897;29;20477;-70
2023/08/01 06:12:37;;;;;;;3.20;3.00;;;17.20;99.90;;;;;;4859139;29;21026;-70
2023/08/01 06:15:04;;;;;;;3.17;2.40;;;17.20;99.90;;;;;;4860169;29;20465;-70
2023/08/01 06:17:32;;;;;;;3.23;3.00;;;17.30;99.90;;;;;;4859491;29;20549;-70
2023/08/01 06:19:59;;;;;;;4.90;2.77;;;17.30;99.90;;;;;;4863239;29;20816;-70
2023/08/01 06:22:26;;;;;;;7.23;2.40;;;17.30;99.90;;;;;;4858729;29;20503;-69
2023/08/01 06:24:52;;;;;;;1.93;1.93;;;17.40;99.90;;;;;;4859428;29;20512;-69
2023/08/01 06:27:19;;;;;;;2.27;2.23;;;17.40;99.90;;;;;;4859596;29;21606;-71
2023/08/01 06:29:46;;;;;;;4.60;2.53;;;17.40;99.90;;;;;;4859182;29;20551;-70
2023/08/01 06:32:12;;;;;;;3.20;3.10;;;17.50;99.90;;;;;;4859091;29;20497;-70
2023/08/01 06:34:40;;;;;;;2.20;2.20;;;17.50;99.90;;;;;;4858942;29;20470;-70
2023/08/01 06:37:07;;;;;;;2.90;2.70;;;17.60;99.90;;;;;;4858883;29;20469;-71
2023/08/01 06:39:34;;;;;;;3.37;2.73;;;17.70;99.90;;;;;;4858211;29;20473;-69
2023/08/01 06:42:00;;;;;;;9.63;3.77;;;17.70;99.90;;;;;;4859455;29;20477;-69
2023/08/01 06:44:27;;;;;;;3.30;3.10;;;17.80;99.90;;;;;;4858763;29;20485;-69
2023/08/01 06:46:54;;;;;;;2.83;2.70;;;17.80;99.90;;;;;;4857648;29;20477;-69
2023/08/01 06:49:20;;;;;;;3.50;3.20;;;17.90;99.90;;;;;;4859706;29;20543;-71
2023/08/01 06:51:48;;;;;;;2.77;2.67;;;18.00;99.90;;;;;;4859907;29;20489;-70
2023/08/01 06:54:15;;;;;;;2.80;2.70;;;18.00;99.90;;;;;;4859145;29;20480;-70
2023/08/01 06:56:47;;;;;;;3.93;3.27;;;17.90;99.90;;;;;;4858506;29;20465;-70
2023/08/01 06:59:13;;;;;;;2.57;2.47;;;17.90;99.90;;;;;;4858795;29;20467;-70
2023/08/01 07:01:43;;;;;;;3.80;3.50;;;17.90;99.90;;;;;;4858969;29;20496;-70
2023/08/01 07:04:09;;;;;;;3.43;3.20;;;17.80;99.90;;;;;;4858953;29;20540;-70
2023/08/01 07:06:36;;;;;;;4.20;3.47;;;17.90;99.90;;;;;;4841505;29;20475;-70
2023/08/01 07:09:04;;;;;;;8.17;3.13;;;18.00;99.90;;;;;;4841452;29;20577;-70
2023/08/01 07:11:31;;;;;;;7.10;2.60;;;18.10;99.90;;;;;;4844909;29;20489;-71
2023/08/01 07:13:57;;;;;;;4.90;3.67;;;18.10;99.90;;;;;;4859456;29;20504;-69
2023/08/01 07:16:24;;;;;;;3.20;3.03;;;18.10;99.90;;;;;;4860355;29;20461;-71
2023/08/01 07:18:51;;;;;;;3.90;3.50;;;18.00;99.90;;;;;;4859477;29;20465;-71
2023/08/01 07:21:18;;;;;;;3.07;2.87;;;17.90;99.90;;;;;;4858721;29;20524;-70
2023/08/01 07:23:45;;;;;;;3.20;3.00;;;17.80;99.90;;;;;;4859455;29;20465;-70
2023/08/01 07:26:13;;;;;;;0.93;0.93;;;17.50;99.90;;;;;;4857793;29;20544;-69
2023/08/01 07:28:40;;;;;;;1.57;1.57;;;17.20;99.90;;;;;;4859226;29;20465;-69
2023/08/01 07:31:08;;;;;;;1.60;1.53;;;17.10;99.90;;;;;;4857286;29;20504;-69
2023/08/01 07:33:35;;;;;;;1.43;1.33;;;17.10;99.90;;;;;;4858405;29;20564;-71
2023/08/01 07:36:02;;;;;;;0.80;0.80;;;17.10;99.90;;;;;;4856319;29;20474;-68
2023/08/01 07:38:31;;;;;;;1.43;1.43;;;17.10;99.90;;;;;;4857886;29;20484;-68
2023/08/01 07:40:58;;;;;;;1.67;1.60;;;17.10;99.90;;;;;;4856617;29;20821;-69
2023/08/01 07:43:27;;;;;;;1.43;1.33;;;17.10;99.90;;;;;;4858058;29;20477;-70
2023/08/01 07:45:56;;;;;;;0.90;0.90;;;17.20;99.90;;;;;;4857731;29;20519;-69
2023/08/01 07:48:23;;;;;;;3.40;1.37;;;17.20;99.90;;;;;;4857008;29;20485;-69
2023/08/01 07:50:50;;;;;;;1.07;1.07;;;17.30;99.90;;;;;;4856263;29;21025;-70
2023/08/01 07:53:17;;;;;;;15.93;2.03;;;17.30;99.90;;;;;;4857428;29;20473;-68
2023/08/01 07:55:43;;;;;;;1.33;1.33;;;17.40;99.90;;;;;;4856965;29;20477;-69
2023/08/01 07:58:10;;;;;;;1.20;1.00;;;17.50;99.90;;;;;;4855513;29;20496;-69
2023/08/01 08:00:38;;;;;;;1.63;1.63;;;17.50;99.90;;;;;;4857865;29;20968;-69
2023/08/01 08:03:08;;;;;;;3.50;1.47;;;17.50;99.90;;;;;;4857775;29;20470;-69
2023/08/01 08:05:38;;;;;;;0.77;0.77;;;17.40;99.90;;;;;;4852713;29;20489;-69
2023/08/01 08:08:05;;;;;;;1.77;1.67;;;17.40;99.90;;;;;;4855701;29;20473;-69
2023/08/01 08:10:31;;;;;;;1.57;1.17;;;17.40;99.90;;;;;;4857049;29;20812;-70
2023/08/01 08:12:58;;;;;;;1.73;1.33;;;17.40;99.90;;;;;;4857748;29;20473;-69
2023/08/01 08:15:26;;;;;;;1.50;1.50;;;17.50;99.90;;;;;;4849916;29;20822;-69
2023/08/01 08:17:54;;;;;;;1.10;1.10;;;17.60;99.90;;;;;;4856425;29;20481;-70
2023/08/01 08:20:20;;;;;;;2.23;1.53;;;17.60;99.90;;;;;;4856806;29;20473;-69
2023/08/01 08:22:47;;;;;;;1.27;1.17;;;17.80;99.90;;;;;;4857783;29;20473;-69
2023/08/01 08:25:14;;;;;;;4.47;1.70;;;17.90;99.90;;;;;;4857623;29;20500;-69
2023/08/01 08:27:41;;;;;;;2.10;1.57;;;18.00;99.90;;;;;;4858624;29;20477;-69
2023/08/01 08:30:08;;;;;;;1.17;1.17;;;18.20;99.90;;;;;;4859576;29;20843;-70
2023/08/01 08:32:36;;;;;;;3.10;1.50;;;18.30;99.90;;;;;;4858342;29;20525;-69
2023/08/01 08:35:05;;;;;;;1.83;1.73;;;18.50;99.90;;;;;;4858666;29;21277;-70
2023/08/01 08:37:31;;;;;;;2.13;1.90;;;18.60;99.90;;;;;;4857562;29;20478;-70
2023/08/01 08:39:58;;;;;;;0.80;0.80;;;18.80;99.90;;;;;;4856019;29;20483;-68
2023/08/01 08:42:25;;;;;;;2.53;2.33;;;18.80;99.90;;;;;;4857106;29;20584;-69
2023/08/01 08:44:56;;;;;;;1.33;1.33;;;18.80;99.90;;;;;;4856846;29;20479;-67
2023/08/01 08:47:25;;;;;;;1.40;1.40;;;18.90;99.90;;;;;;4857473;29;20820;-68
2023/08/01 08:49:53;;;;;;;1.77;1.77;;;19.00;99.90;;;;;;4858249;29;20462;-68
2023/08/01 08:52:21;;;;;;;2.17;2.07;;;19.10;99.90;;;;;;4857215;29;20496;-68
2023/08/01 08:54:48;;;;;;;1.63;1.50;;;19.30;99.90;;;;;;4857322;29;20957;-68
2023/08/01 08:57:16;;;;;;;1.90;1.77;;;19.30;99.90;;;;;;4856791;29;20947;-69
2023/08/01 08:59:44;;;;;;;2.80;2.30;;;19.50;99.90;;;;;;4856231;29;20470;-69
2023/08/01 09:02:10;;;;;;;3.43;1.63;;;19.70;99.90;;;;;;4856188;29;20844;-69
2023/08/01 09:04:37;;;;;;;1.60;1.50;;;20.00;99.90;;;;;;4857695;29;20476;-69
2023/08/01 09:07:09;;;;;;;2.57;1.70;;;20.10;99.90;;;;;;4854550;29;20512;-68
2023/08/01 09:09:37;;;;;;;2.60;2.40;;;20.00;99.90;;;;;;4854554;29;20484;-69
2023/08/01 09:12:04;;;;;;;1.60;1.60;;;19.80;99.90;;;;;;4857240;29;20551;-69
2023/08/01 09:14:32;;;;;;;2.10;1.37;;;19.60;99.90;;;;;;4865811;29;21409;-69
2023/08/01 09:17:07;;;;;;;1.50;1.50;;;19.40;99.90;;;;;;4876553;29;20485;-70
2023/08/01 09:19:34;;;;;;;1.80;1.80;;;19.40;99.90;;;;;;4860315;29;21033;-69
2023/08/01 09:22:01;;;;;;;1.60;1.60;;;19.60;99.90;;;;;;4861258;29;20498;-69
2023/08/01 09:24:27;;;;;;;1.40;1.40;;;19.60;99.90;;;;;;4860876;29;20475;-69
2023/08/01 09:27:04;;;;;;;1.80;1.67;;;19.70;99.90;;;;;;4860756;29;20504;-69
2023/08/01 09:29:31;;;;;;;1.40;1.30;;;19.80;99.90;;;;;;4860969;29;20466;-69
2023/08/01 09:31:58;;;;;;;1.90;1.60;;;20.00;99.90;;;;;;4861726;29;20575;-69
2023/08/01 09:34:26;;;;;;;1.80;1.57;;;20.00;99.90;;;;;;4861257;29;20989;-68
2023/08/01 09:36:59;;;;;;;1.70;1.60;;;19.90;99.90;;;;;;4861023;29;20474;-68
2023/08/01 09:39:25;;;;;;;1.13;1.13;;;19.80;99.90;;;;;;4860102;29;20480;-68
2023/08/01 09:41:58;;;;;;;1.83;1.73;;;19.80;99.90;;;;;;4863069;29;20870;-69
2023/08/01 09:44:26;;;;;;;1.20;1.20;;;20.00;99.90;;;;;;4862166;29;20568;-69
2023/08/01 09:46:57;;;;;;;1.10;1.10;;;20.00;99.90;;;;;;4875071;29;21044;-68
2023/08/01 09:49:24;;;;;;;0.80;0.80;;;20.20;99.90;;;;;;4861061;29;20882;-68
2023/08/01 09:51:51;;;;;;;1.37;1.37;;;20.10;99.90;;;;;;4860809;29;20490;-68
2023/08/01 09:54:18;;;;;;;1.07;0.80;;;20.10;99.90;;;;;;4857502;29;20592;-68
2023/08/01 09:56:47;;;;;;;1.00;1.00;;;20.00;99.90;;;;;;4857374;29;20462;-67
2023/08/01 09:59:17;;;;;;;1.20;1.20;;;20.00;99.90;;;;;;4863594;29;20459;-68
2023/08/01 10:01:45;;;;;;;0.80;0.80;;;20.20;99.90;;;;;;4857590;29;20880;-68
2023/08/01 10:04:13;;;;;;;0.60;0.60;;;20.40;99.90;;;;;;4860577;29;20897;-68
2023/08/01 10:06:44;;;;;;;0.60;0.60;;;20.50;99.90;;;;;;4859075;29;20508;-68
2023/08/01 10:09:11;;;;;;;0.80;0.80;;;20.50;99.90;;;;;;4860313;29;20523;-69
2023/08/01 10:11:40;;;;;;;1.60;0.70;;;20.70;99.90;;;;;;4856658;29;20622;-67
2023/08/01 10:14:08;;;;;;;0.57;0.57;;;20.70;99.90;;;;;;4858027;29;20566;-68
2023/08/01 10:16:37;;;;;;;1.20;1.20;;;20.70;99.90;;;;;;4859865;29;20490;-68
2023/08/01 10:19:07;;;;;;;0.80;0.80;;;20.70;99.90;;;;;;4900189;23;20510;-70
2023/08/01 10:21:34;;;;;;;0.80;0.80;;;20.90;99.90;;;;;;4885777;29;20462;-70
2023/08/01 10:24:03;;;;;;;0.90;0.90;;;20.90;99.90;;;;;;4885892;29;20482;-70
2023/08/01 10:26:30;;;;;;;0.53;0.53;;;21.00;99.90;;;;;;4896963;23;20573;-69
2023/08/01 10:28:58;;;;;;;0.73;0.73;;;20.90;99.90;;;;;;4879799;29;20499;-71
2023/08/01 10:31:25;;;;;;;0.60;0.60;;;20.90;99.90;;;;;;4892702;29;20469;-71
2023/08/01 10:33:53;;;;;;;0.50;0.50;;;21.00;99.90;;;;;;4902282;29;20505;-69
2023/08/01 10:36:21;;;;;;;0.40;0.40;;;20.90;99.90;;;;;;4876454;29;20483;-71
2023/08/01 10:38:49;;;;;;;0.80;0.80;;;20.90;99.90;;;;;;4883825;29;20480;-68
2023/08/01 10:41:20;;;;;;;1.13;0.80;;;21.00;99.90;;;;;;4890148;29;20478;-70
2023/08/01 10:43:47;;;;;;;0.70;0.70;;;20.90;99.90;;;;;;4883375;29;20542;-71
2023/08/01 10:46:14;;;;;;;1.00;1.00;;;20.90;99.90;;;;;;4860115;29;20499;-71
2023/08/01 10:48:49;;;;;;;0.60;0.60;;;21.00;99.90;;;;;;4877183;29;20494;-70
2023/08/01 10:51:18;;;;;;;0.43;0.43;;;21.00;99.90;;;;;;4874509;29;20465;-73
2023/08/01 10:53:44;;;;;;;0.77;0.50;;;20.90;99.90;;;;;;4894069;29;20478;-71
2023/08/01 10:56:18;;;;;;;2.80;2.80;;;21.00;99.90;;;;;;4879070;29;20950;-69
2023/08/01 10:58:45;;;;;;;0.60;0.60;;;21.20;99.90;;;;;;4887449;29;20562;-68
2023/08/01 11:01:11;;;;;;;0.30;0.30;;;21.40;99.90;;;;;;4885060;29;20475;-70
2023/08/01 11:03:39;;;;;;;0.40;0.40;;;21.40;99.90;;;;;;4892432;29;20818;-71
2023/08/01 11:06:06;;;;;;;1.90;0.50;;;21.40;99.90;;;;;;4877565;29;20552;-70
2023/08/01 11:08:38;;;;;;;0.53;0.53;;;21.40;99.90;;;;;;4877938;29;20492;-71
2023/08/01 11:11:06;;;;;;;0.50;0.50;;;21.40;99.90;;;;;;4877922;29;20467;-70
2023/08/01 11:13:34;;;;;;;0.90;0.90;;;21.40;99.90;;;;;;4877590;29;20506;-70
2023/08/01 11:16:03;;;;;;;1.33;0.57;;;21.40;99.90;;;;;;4877749;29;20463;-70
2023/08/01 11:18:30;;;;;;;1.47;0.40;;;21.40;99.90;;;;;;4878168;29;20627;-70
2023/08/01 11:20:57;;;;;;;0.70;0.70;;;21.40;99.90;;;;;;4877999;29;20467;-70
2023/08/01 11:23:29;;;;;;;1.13;0.70;;;21.50;99.90;;;;;;4877771;29;20476;-69
2023/08/01 11:25:57;;;;;;;0.67;0.67;;;21.50;99.90;;;;;;4872237;29;21183;-68
2023/08/01 11:28:24;;;;;;;0.50;0.50;;;21.40;99.90;;;;;;4876076;29;20499;-70
2023/08/01 11:30:51;;;;;;;0.63;0.60;;;21.50;99.90;;;;;;4875221;29;20845;-70
2023/08/01 11:33:21;;;;;;;0.63;0.63;;;21.70;99.90;;;;;;4892832;29;20463;-71
2023/08/01 11:35:51;;;;;;;0.87;0.70;;;21.90;99.90;;;;;;4889932;29;20946;-69
2023/08/01 11:38:17;;;;;;;1.50;0.40;;;21.90;99.90;;;;;;4884966;29;20496;-71
2023/08/01 11:40:45;;;;;;;0.57;0.57;;;21.90;99.90;;;;;;4895045;29;20483;-71
2023/08/01 11:43:13;;;;;;;0.40;0.40;;;21.90;99.90;;;;;;4895620;29;20563;-71
2023/08/01 11:45:49;;;;;;;0.30;0.30;;;22.00;99.90;;;;;;4892584;29;20480;-70
2023/08/01 11:48:16;;;;;;;0.50;0.50;;;22.00;99.90;;;;;;4887816;29;20486;-70
2023/08/01 11:50:42;;;;;;;0.60;0.60;;;21.80;99.90;;;;;;4895555;29;20472;-70
2023/08/01 11:53:19;;;;;;;0.47;0.47;;;21.60;99.90;;;;;;4896099;29;20466;-71
2023/08/01 11:55:45;;;;;;;0.40;0.40;;;21.50;99.90;;;;;;4890733;29;20990;-72
2023/08/01 11:58:14;;;;;;;1.57;0.40;;;21.30;99.90;;;;;;4887242;29;20510;-69
2023/08/01 12:00:41;;;;;;;2.00;0.80;;;20.30;99.90;;;;;;4895567;29;20475;-67
2023/08/01 12:03:12;;;;;;;0.37;0.37;;;19.30;99.90;;;;;;4883978;29;20579;-68
2023/08/01 12:05:41;;;;;;;0.50;0.47;;;18.60;99.90;;;;;;4890172;29;20471;-68
2023/08/01 12:08:11;;;;;;;0.23;0.23;;;18.00;99.90;;;;;;4885066;29;20486;-68
2023/08/01 12:10:39;;;;;;;0.60;0.40;;;17.70;99.90;;;;;;4876488;29;20464;-68
2023/08/01 12:13:05;;;;;;;0.20;0.20;;;17.60;99.90;;;;;;4876580;29;20480;-68
2023/08/01 12:15:33;;;;;;;0.20;0.20;;;17.60;99.90;;;;;;4887263;29;20487;-68
2023/08/01 12:18:00;;;;;;;0.30;0.30;;;17.60;99.90;;;;;;4894701;29;20488;-68
2023/08/01 12:20:27;;;;;;;0.30;0.30;;;17.70;99.90;;;;;;4895432;29;20467;-68
2023/08/01 12:22:53;;;;;;;0.50;0.50;;;17.70;99.90;;;;;;4889440;29;20956;-68
2023/08/01 12:25:20;;;;;;;0.40;0.40;;;17.80;99.90;;;;;;4885114;29;20467;-68
2023/08/01 12:27:46;;;;;;;0.40;0.40;;;18.10;99.90;;;;;;4894226;29;20506;-69
2023/08/01 12:30:13;;;;;;;2.00;0.40;;;18.40;99.90;;;;;;4886593;29;20520;-67
2023/08/01 12:32:41;;;;;;;1.13;0.40;;;18.60;99.90;;;;;;4876046;29;20468;-68
2023/08/01 12:35:09;;;;;;;0.67;0.67;;;18.90;99.90;;;;;;4875619;29;20472;-68
2023/08/01 12:37:35;;;;;;;1.30;1.20;;;19.10;99.90;;;;;;4873266;29;20517;-68
2023/08/01 12:40:03;;;;;;;0.60;0.60;;;19.20;99.90;;;;;;4884288;29;20773;-67
2023/08/01 12:42:29;;;;;;;0.77;0.77;;;19.30;99.90;;;;;;4874826;29;20487;-68
2023/08/01 12:44:56;;;;;;;0.53;0.53;;;19.30;99.90;;;;;;4886429;29;20464;-69
2023/08/01 12:47:23;;;;;;;0.60;0.60;;;19.20;99.90;;;;;;4890701;29;20615;-68
2023/08/01 12:49:51;;;;;;;0.63;0.63;;;19.00;99.90;;;;;;4883674;29;20548;-69
2023/08/01 12:52:24;;;;;;;0.80;0.80;;;18.70;99.90;;;;;;4883373;29;20994;-69
2023/08/01 12:54:51;;;;;;;1.10;1.10;;;18.40;99.90;;;;;;4889792;29;20523;-68
2023/08/01 12:57:17;;;;;;;1.23;1.13;;;18.20;99.90;;;;;;4894733;29;20466;-69
2023/08/01 12:59:44;;;;;;;0.70;0.70;;;18.20;99.90;;;;;;4886423;29;20467;-69
2023/08/01 13:02:11;;;;;;;0.90;0.90;;;18.20;99.90;;;;;;4887907;29;20551;-67
2023/08/01 13:04:38;;;;;;;0.70;0.70;;;18.20;99.90;;;;;;4887998;29;20475;-69
2023/08/01 13:07:06;;;;;;;0.50;0.50;;;18.20;99.90;;;;;;4878551;29;20551;-69
2023/08/01 13:09:33;;;;;;;0.70;0.70;;;18.20;99.90;;;;;;4882706;29;20487;-68
2023/08/01 13:12:00;;;;;;;0.87;0.87;;;18.10;99.90;;;;;;4890224;29;20471;-68
2023/08/01 13:14:27;;;;;;;0.70;0.70;;;18.00;99.90;;;;;;4897844;29;20530;-68
2023/08/01 13:16:54;;;;;;;0.80;0.80;;;17.90;99.90;;;;;;4898527;29;20474;-67
2023/08/01 13:19:20;;;;;;;0.70;0.70;;;17.90;99.90;;;;;;4887790;29;20506;-68
2023/08/01 13:21:47;;;;;;;0.60;0.60;;;17.90;99.90;;;;;;4893334;29;20835;-68
2023/08/01 13:24:15;;;;;;;0.77;0.77;;;17.90;99.90;;;;;;4898212;29;20467;-67
2023/08/01 13:26:42;;;;;;;1.03;1.03;;;17.90;99.90;;;;;;4897552;29;20495;-68
2023/08/01 13:29:08;;;;;;;0.70;0.70;;;18.00;99.90;;;;;;4881250;29;20518;-69
2023/08/01 13:31:35;;;;;;;1.13;0.90;;;18.00;99.90;;;;;;4886350;29;20477;-68
2023/08/01 13:34:02;;;;;;;0.83;0.83;;;18.00;99.90;;;;;;4893234;29;20463;-68
2023/08/01 13:36:28;;;;;;;0.80;0.80;;;18.00;99.90;;;;;;4898147;29;20466;-68
2023/08/01 13:38:55;;;;;;;1.10;1.10;;;18.20;99.90;;;;;;4894858;29;20582;-69
2023/08/01 13:41:23;;;;;;;1.10;1.10;;;18.30;99.90;;;;;;4886407;29;20952;-68
2023/08/01 13:43:49;;;;;;;0.83;0.83;;;18.30;99.90;;;;;;4860377;29;20476;-68
2023/08/01 13:46:17;;;;;;;0.70;0.70;;;18.30;99.90;;;;;;4860724;29;20464;-68
2023/08/01 13:48:44;;;;;;;5.20;0.93;;;18.40;99.90;;;;;;4860588;29;20489;-68
2023/08/01 13:51:12;;;;;;;2.50;1.17;;;18.40;99.90;;;;;;4887012;29;20467;-68
2023/08/01 13:53:40;;;;;;;1.73;1.50;;;18.60;99.90;;;;;;4881765;29;20564;-61
2023/08/01 13:56:07;;;;;;;1.67;1.57;;;18.80;99.90;;;;;;4880772;29;20571;-63
2023/08/01 13:58:35;;;;;;;0.97;0.97;;;19.00;99.90;;;;;;4887218;29;20487;-68
2023/08/01 14:01:06;;;;;;;1.40;1.40;;;19.10;99.90;;;;;;4879503;29;21051;-68
2023/08/01 14:03:33;;;;;;;0.47;0.47;;;19.20;99.90;;;;;;4888570;29;20485;-69
2023/08/01 14:06:05;;;;;;;0.80;0.80;;;19.20;99.90;;;;;;4874177;29;20476;-68
2023/08/01 14:08:32;;;;;;;0.80;0.80;;;19.10;99.90;;;;;;4889097;29;20888;-69
2023/08/01 14:10:58;;;;;;;1.00;1.00;;;19.00;99.90;;;;;;4878605;29;20480;-69
2023/08/01 14:13:25;;;;;;;0.60;0.60;;;18.80;99.90;;;;;;4884656;29;20971;-69
2023/08/01 14:15:53;;;;;;;0.70;0.70;;;18.60;99.90;;;;;;4879083;29;20475;-68
2023/08/01 14:18:20;;;;;;;0.40;0.40;;;18.30;99.90;;;;;;4878227;29;20480;-69
2023/08/01 14:20:47;;;;;;;0.93;0.73;;;18.00;99.90;;;;;;4885962;29;20476;-69
2023/08/01 14:23:13;;;;;;;0.73;0.73;;;17.80;99.90;;;;;;4886832;29;20848;-68
2023/08/01 14:25:40;;;;;;;0.63;0.63;;;17.70;99.90;;;;;;4884343;29;20482;-69
2023/08/01 14:28:07;;;;;;;0.50;0.50;;;17.70;99.90;;;;;;4860123;29;20576;-68
2023/08/01 14:30:34;;;;;;;1.00;1.00;;;17.90;99.90;;;;;;4870028;29;20837;-69
2023/08/01 14:33:03;;;;;;;0.60;0.60;;;18.00;99.90;;;;;;4884191;29;20463;-68
2023/08/01 14:35:30;;;;;;;0.67;0.67;;;18.20;99.90;;;;;;4879116;29;20469;-67
2023/08/01 14:37:56;;;;;;;0.50;0.50;;;18.20;99.90;;;;;;4868908;29;20491;-68
2023/08/01 14:40:24;;;;;;;1.07;0.70;;;18.20;99.90;;;;;;4875455;29;20484;-69
2023/08/01 14:42:50;;;;;;;0.30;0.30;;;18.00;99.90;;;;;;4870082;29;20501;-68
2023/08/01 14:45:17;;;;;;;0.50;0.50;;;17.90;99.90;;;;;;4887850;29;20474;-68
2023/08/01 14:47:44;;;;;;;1.20;0.57;;;17.80;99.90;;;;;;4893479;29;20496;-70
2023/08/01 14:50:13;;;;;;;4.80;0.50;;;17.70;99.90;;;;;;4874993;29;20472;-68
2023/08/01 14:52:41;;;;;;;1.10;0.50;;;17.60;99.90;;;;;;4876126;29;20479;-67
2023/08/01 14:55:08;;;;;;;0.93;0.60;;;17.60;99.90;;;;;;4878222;29;20475;-69
2023/08/01 14:57:35;;;;;;;0.50;0.50;;;17.50;99.90;;;;;;4877125;29;20548;-68
2023/08/01 15:00:02;;;;;;;0.53;0.53;;;17.40;99.90;;;;;;4880157;29;20468;-68
2023/08/01 15:02:29;;;;;;;0.50;0.50;;;17.20;99.90;;;;;;4880860;29;20480;-67
2023/08/01 15:04:57;;;;;;;0.30;0.30;;;17.20;99.90;;;;;;4868100;29;20465;-68
2023/08/01 15:07:26;;;;;;;0.30;0.30;;;17.20;99.90;;;;;;4881696;29;20483;-68
2023/08/01 15:09:54;;;;;;;0.40;0.40;;;17.10;99.90;;;;;;4880456;29;20479;-67
2023/08/01 15:12:23;;;;;;;0.60;0.60;;;17.10;99.90;;;;;;4886326;29;20560;-68
2023/08/01 15:14:50;;;;;;;0.50;0.50;;;17.10;99.90;;;;;;4873215;29;20472;-68
2023/08/01 15:17:17;;;;;;;0.50;0.50;;;17.10;99.90;;;;;;4880176;29;20487;-68
2023/08/01 15:19:46;;;;;;;0.50;0.50;;;17.10;99.90;;;;;;4897120;29;20463;-69
2023/08/01 15:22:13;;;;;;;0.93;0.30;;;17.30;99.90;;;;;;4890323;29;20472;-68
2023/08/01 15:24:41;;;;;;;0.30;0.30;;;17.40;99.90;;;;;;4881201;29;20476;-69
2023/08/01 15:27:08;;;;;;;0.43;0.43;;;17.70;99.90;;;;;;4885167;29;20492;-69
2023/08/01 15:29:35;;;;;;;0.40;0.40;;;17.70;99.90;;;;;;4874787;29;20503;-69
2023/08/01 15:32:02;;;;;;;1.07;0.50;;;17.70;99.90;;;;;;4890520;29;20463;-69
2023/08/01 15:34:28;;;;;;;0.40;0.40;;;17.70;99.90;;;;;;4883374;29;20987;-69
2023/08/01 15:36:55;;;;;;;0.30;0.30;;;17.70;99.90;;;;;;4883834;29;20479;-69
2023/08/01 15:39:22;;;;;;;0.30;0.30;;;17.80;99.90;;;;;;4885847;29;20480;-69
2023/08/01 15:41:50;;;;;;;0.40;0.40;;;17.80;99.90;;;;;;4896161;29;20815;-69
2023/08/01 15:44:17;;;;;;;0.63;0.63;;;17.90;99.90;;;;;;4874864;29;20484;-68
2023/08/01 15:46:43;;;;;;;0.60;0.60;;;17.80;99.90;;;;;;4883557;29;20479;-68
2023/08/01 15:49:10;;;;;;;0.33;0.30;;;17.80;99.90;;;;;;4885037;29;20507;-69
2023/08/01 15:51:36;;;;;;;0.23;0.23;;;17.70;99.90;;;;;;4877448;29;20494;-69
2023/08/01 15:54:03;;;;;;;2.20;0.73;;;17.70;99.90;;;;;;4879479;29;20791;-69
2023/08/01 15:56:30;;;;;;;0.53;0.53;;;17.70;99.90;;;;;;4887829;29;20487;-68
2023/08/01 15:58:58;;;;;;;0.63;0.63;;;17.70;99.90;;;;;;4895419;29;20479;-69
2023/08/01 16:01:25;;;;;;;0.63;0.63;;;17.90;99.90;;;;;;4872653;29;20511;-68
2023/08/01 16:03:52;;;;;;;1.63;1.53;;;17.90;99.90;;;;;;4869223;29;20555;-69
2023/08/01 16:06:18;;;;;;;0.83;0.83;;;18.00;99.90;;;;;;4870345;29;20487;-69
2023/08/01 16:08:45;;;;;;;3.40;0.80;;;18.00;99.90;;;;;;4877120;29;20506;-69
2023/08/01 16:11:12;;;;;;;3.23;0.80;;;18.10;99.90;;;;;;4887892;29;20540;-68
2023/08/01 16:13:39;;;;;;;0.77;0.60;;;18.10;99.90;;;;;;4881012;29;20475;-68
2023/08/01 16:16:07;;;;;;;0.73;0.73;;;18.20;99.90;;;;;;4887654;29;20470;-69
2023/08/01 16:18:33;;;;;;;0.80;0.80;;;18.10;99.90;;;;;;4889490;23;20527;-69
2023/08/01 16:21:00;;;;;;;2.50;0.60;;;18.10;99.90;;;;;;4893139;29;20474;-68
2023/08/01 16:23:27;;;;;;;0.30;0.30;;;18.00;99.90;;;;;;4893354;29;20472;-67
2023/08/01 16:25:54;;;;;;;0.70;0.70;;;18.00;99.90;;;;;;4894069;29;20796;-68
2023/08/01 16:28:20;;;;;;;0.70;0.70;;;18.10;99.90;;;;;;4893622;29;20502;-68
2023/08/01 16:30:49;;;;;;;0.80;0.80;;;18.20;99.90;;;;;;4893976;29;20471;-67
2023/08/01 16:33:18;;;;;;;1.33;0.53;;;18.20;99.90;;;;;;4893859;29;20491;-67
2023/08/01 16:35:45;;;;;;;0.50;0.50;;;18.20;99.90;;;;;;4896395;29;20989;-68
2023/08/01 16:38:11;;;;;;;0.50;0.50;;;18.20;99.90;;;;;;4894589;29;20480;-68
2023/08/01 16:40:39;;;;;;;2.13;1.97;;;18.20;99.90;;;;;;4890874;29;20991;-68
2023/08/01 16:43:05;;;;;;;1.53;0.67;;;18.20;99.90;;;;;;4907786;29;20493;-68
2023/08/01 16:45:32;;;;;;;0.60;0.60;;;18.20;99.90;;;;;;4901607;29;20463;-67
2023/08/01 16:47:59;;;;;;;0.60;0.60;;;18.10;99.90;;;;;;4893275;29;20997;-68